Time;durP1;ratioP1;P1;durP2;ratioP2;P2;SDS_P1;SDS_P2;PMS_P1;PMS_P2;Temp;Humidity;BMP_temperature;BMP_pressure;BME280_temperature;BME280_humidity;BME280_pressure;Samples;Min_cycle;Max_cycle;Signal;HPM_P1;HPM_P2
2022/05/27 00:00:16;;;;;;;;;;;14.80;99.90;;;;;;4965010;28;19934;-68
2022/05/27 00:02:43;;;;;;;;;;;14.80;99.90;;;;;;4958774;28;19933;-68
2022/05/27 00:05:11;;;;;;;;;;;14.80;99.90;;;;;;4962586;28;20281;-68
2022/05/27 00:07:38;;;;;;;;;;;14.70;99.90;;;;;;4958778;28;19927;-68
2022/05/27 00:10:06;;;;;;;;;;;14.70;99.90;;;;;;4959869;28;19926;-68
2022/05/27 00:12:32;;;;;;;;;;;14.70;99.90;;;;;;4958360;28;19926;-68
2022/05/27 00:14:59;;;;;;;;;;;14.80;99.90;;;;;;4960119;28;20185;-68
2022/05/27 00:17:25;;;;;;;;;;;14.70;99.90;;;;;;4964236;28;20029;-68
2022/05/27 00:19:52;;;;;;;;;;;14.70;99.90;;;;;;4967496;28;19926;-68
2022/05/27 00:22:20;;;;;;;;;;;14.70;99.90;;;;;;4960408;28;19940;-69
2022/05/27 00:24:47;;;;;;;;;;;14.80;99.90;;;;;;4972361;28;19933;-68
2022/05/27 00:27:14;;;;;;;;;;;14.80;99.90;;;;;;4965198;28;19976;-69
2022/05/27 00:29:41;;;;;;;;;;;14.80;99.90;;;;;;4965434;28;19957;-69
2022/05/27 00:32:08;;;;;;;;;;;14.80;99.90;;;;;;4962892;28;19933;-68
2022/05/27 00:34:34;;;;;;;;;;;14.80;99.90;;;;;;4965446;28;20413;-68
2022/05/27 00:37:03;;;;;;;;;;;14.80;99.90;;;;;;4964526;28;20412;-68
2022/05/27 00:39:31;;;;;;;;;;;14.80;99.90;;;;;;4967060;28;19926;-68
2022/05/27 00:41:58;;;;;;;;;;;14.70;99.90;;;;;;4968392;28;19926;-68
2022/05/27 00:44:24;;;;;;;;;;;14.80;99.90;;;;;;4962289;28;20017;-68
2022/05/27 00:46:51;;;;;;;;;;;14.80;99.90;;;;;;4959274;28;20029;-68
2022/05/27 00:49:20;;;;;;;;;;;14.80;99.90;;;;;;4965553;28;19930;-68
2022/05/27 00:51:48;;;;;;;;;;;14.80;99.90;;;;;;4965874;28;19934;-68
2022/05/27 00:54:17;;;;;;;;;;;14.80;99.90;;;;;;4965645;28;19934;-68
2022/05/27 00:56:48;;;;;;;;;;;14.80;99.90;;;;;;4964209;28;19926;-68
2022/05/27 00:59:18;;;;;;;;;;;14.80;99.90;;;;;;4966815;28;19934;-68
2022/05/27 01:01:45;;;;;;;;;;;14.80;99.90;;;;;;4965478;28;19926;-69
2022/05/27 01:04:12;;;;;;;;;;;14.80;99.90;;;;;;4967980;28;20047;-68
2022/05/27 01:06:39;;;;;;;;;;;14.80;99.90;;;;;;4963012;28;20316;-68
2022/05/27 01:09:06;;;;;;;;;;;14.80;99.90;;;;;;4963241;28;19926;-68
2022/05/27 01:11:37;;;;;;;;;;;14.80;99.90;;;;;;4968110;28;20393;-68
2022/05/27 01:14:14;;;;;;;;;;;14.80;99.90;;;;;;4961182;28;19932;-68
2022/05/27 01:16:47;;;;;;;;;;;14.80;99.90;;;;;;4963471;28;20041;-68
2022/05/27 01:22:30;;;;;;;;;;;14.70;99.90;;;;;;4960507;28;20041;-68
2022/05/27 01:25:06;;;;;;;;;;;14.80;99.90;;;;;;4964080;28;19946;-69
2022/05/27 01:27:57;;;;;;;;;;;14.70;99.90;;;;;;4959923;28;20262;-68
2022/05/27 01:30:26;;;;;;;;;;;14.70;99.90;;;;;;4947570;28;20103;-68
2022/05/27 01:33:10;;;;;;;;;;;14.70;99.90;;;;;;4960824;28;20412;-68
2022/05/27 01:35:42;;;;;;;;;;;14.70;99.90;;;;;;4970091;28;19932;-68
2022/05/27 01:38:11;;;;;;;;;;;14.70;99.90;;;;;;4970995;28;20297;-68
2022/05/27 01:40:41;;;;;;;;;;;14.80;99.90;;;;;;4972649;28;20286;-68
2022/05/27 01:43:15;;;;;;;;;;;14.80;99.90;;;;;;4968219;28;20005;-68
2022/05/27 01:45:49;;;;;;;;;;;14.80;99.90;;;;;;4971813;28;20300;-68
2022/05/27 01:48:18;;;;;;;;;;;14.80;99.90;;;;;;4966877;28;19934;-68
2022/05/27 01:50:48;;;;;;;;;;;14.80;99.90;;;;;;4958262;28;19926;-69
2022/05/27 01:53:18;;;;;;;;;;;14.80;99.90;;;;;;4970473;28;20008;-68
2022/05/27 01:55:47;;;;;;;;;;;14.80;99.90;;;;;;4965385;28;19934;-68
2022/05/27 01:58:15;;;;;;;;;;;14.80;99.90;;;;;;4962724;28;20312;-68
2022/05/27 02:00:44;;;;;;;;;;;14.80;99.90;;;;;;4966417;28;19934;-68
2022/05/27 02:03:13;;;;;;;;;;;14.80;99.90;;;;;;4960850;28;19930;-68
2022/05/27 02:05:41;;;;;;;;;;;14.80;99.90;;;;;;4962689;28;19932;-68
2022/05/27 02:08:10;;;;;;;;;;;14.80;99.90;;;;;;4957443;28;19926;-68
2022/05/27 02:10:38;;;;;;;;;;;14.80;99.90;;;;;;4960274;28;19926;-69
2022/05/27 02:13:08;;;;;;;;;;;14.80;99.90;;;;;;4961885;28;19973;-68
2022/05/27 02:15:38;;;;;;;;;;;14.80;99.90;;;;;;4968266;28;19932;-68
2022/05/27 02:18:10;;;;;;;;;;;14.80;99.90;;;;;;4964915;28;19927;-68
2022/05/27 02:20:39;;;;;;;;;;;14.80;99.90;;;;;;4967712;28;19930;-68
2022/05/27 02:23:09;;;;;;;;;;;14.80;99.90;;;;;;4962487;28;19930;-67
2022/05/27 02:25:37;;;;;;;;;;;14.80;99.90;;;;;;4962595;28;20707;-68
2022/05/27 02:28:06;;;;;;;;;;;14.80;99.90;;;;;;4959375;28;20033;-69
2022/05/27 02:30:34;;;;;;;;;;;14.80;99.90;;;;;;4960197;28;19932;-68
2022/05/27 02:35:49;;;;;;;;;;;14.80;99.90;;;;;;4959689;28;19978;-68
2022/05/27 02:38:17;;;;;;;;;;;14.80;99.90;;;;;;4966450;28;19934;-68
2022/05/27 02:40:46;;;;;;;;;;;14.80;99.90;;;;;;4961219;28;19933;-69
2022/05/27 02:43:19;;;;;;;;;;;14.80;99.90;;;;;;4964253;28;20013;-69
2022/05/27 02:45:50;;;;;;;;;;;14.80;99.90;;;;;;4958897;28;19926;-69
2022/05/27 02:48:23;;;;;;;;;;;14.80;99.90;;;;;;4962379;28;19930;-69
2022/05/27 02:50:56;;;;;;;;;;;14.80;99.90;;;;;;4964147;28;19930;-68
2022/05/27 02:53:27;;;;;;;;;;;14.80;99.90;;;;;;4962643;28;19933;-68
2022/05/27 02:56:01;;;;;;;;;;;14.80;99.90;;;;;;4961950;28;19932;-68
2022/05/27 02:58:29;;;;;;;;;;;14.80;99.90;;;;;;4960077;28;19941;-68
2022/05/27 03:00:55;;;;;;;;;;;14.80;99.90;;;;;;4961300;28;19969;-69
2022/05/27 03:03:22;;;;;;;;;;;14.90;99.90;;;;;;4958691;28;20026;-68
2022/05/27 03:05:56;;;;;;;;;;;14.80;99.90;;;;;;4958543;28;19926;-68
2022/05/27 03:08:25;;;;;;;;;;;14.90;99.90;;;;;;4960083;28;20585;-68
2022/05/27 03:11:02;;;;;;;;;;;14.80;99.90;;;;;;4961290;28;19926;-68
2022/05/27 03:13:44;;;;;;;;;;;14.80;99.90;;;;;;4961168;28;19927;-68
2022/05/27 03:16:18;;;;;;;;;;;14.80;99.90;;;;;;4959817;28;19930;-68
2022/05/27 03:18:51;;;;;;;;;;;14.70;99.90;;;;;;4960398;28;19934;-68
2022/05/27 03:21:23;;;;;;;;;;;14.70;99.90;;;;;;4964789;28;19992;-68
2022/05/27 03:24:07;;;;;;;;;;;14.80;99.90;;;;;;4962021;28;19988;-68
2022/05/27 03:26:42;;;;;;;;;;;14.80;99.90;;;;;;4959814;28;20433;-69
2022/05/27 03:29:15;;;;;;;;;;;14.70;99.90;;;;;;4958268;28;20030;-68
2022/05/27 03:31:44;;;;;;;;;;;14.70;99.90;;;;;;4957369;28;19952;-68
2022/05/27 03:34:14;;;;;;;;;;;14.60;99.90;;;;;;4960287;28;19926;-68
2022/05/27 03:36:45;;;;;;;;;;;14.50;99.90;;;;;;4959581;28;19933;-68
2022/05/27 03:39:14;;;;;;;;;;;14.40;99.90;;;;;;4956952;28;20021;-68
2022/05/27 03:41:44;;;;;;;;;;;14.30;99.90;;;;;;4962336;28;19930;-68
2022/05/27 03:44:14;;;;;;;;;;;14.30;99.90;;;;;;4960833;28;19930;-69
2022/05/27 03:46:40;;;;;;;;;;;14.20;99.90;;;;;;4959794;28;19926;-69
2022/05/27 03:49:07;;;;;;;;;;;14.20;99.90;;;;;;4952889;28;19926;-70
2022/05/27 03:51:36;;;;;;;;;;;14.20;99.90;;;;;;4963060;28;19930;-69
2022/05/27 03:54:04;;;;;;;;;;;14.20;99.90;;;;;;4966230;28;20588;-69
2022/05/27 03:56:32;;;;;;;;;;;14.20;99.90;;;;;;4966571;28;20390;-69
2022/05/27 03:58:59;;;;;;;;;;;14.20;99.90;;;;;;4960081;28;19974;-69
2022/05/27 04:01:29;;;;;;;;;;;14.20;99.90;;;;;;4961343;28;19997;-70
2022/05/27 04:03:56;;;;;;;;;;;14.20;99.90;;;;;;4959621;28;20385;-70
2022/05/27 04:06:23;;;;;;;;;;;14.20;99.90;;;;;;4965228;28;19926;-70
2022/05/27 04:08:50;;;;;;;;;;;14.20;99.90;;;;;;4958121;28;20037;-69
2022/05/27 04:11:18;;;;;;;;;;;14.10;99.90;;;;;;4960878;28;20017;-69
2022/05/27 04:13:44;;;;;;;;;;;14.10;99.90;;;;;;4961550;28;20022;-70
2022/05/27 04:16:11;;;;;;;;;;;14.10;99.90;;;;;;4962673;28;19926;-69
2022/05/27 04:18:37;;;;;;;;;;;14.10;99.90;;;;;;4968052;28;20297;-69
2022/05/27 04:21:04;;;;;;;;;;;14.10;99.90;;;;;;4962858;28;19935;-70
2022/05/27 04:23:31;;;;;;;;;;;14.10;99.90;;;;;;4959914;28;20397;-69
2022/05/27 04:25:57;;;;;;;;;;;14.10;99.90;;;;;;4961485;28;19945;-69
2022/05/27 04:28:26;;;;;;;;;;;14.10;99.90;;;;;;4960484;28;19926;-70
2022/05/27 04:30:52;;;;;;;;;;;14.10;99.90;;;;;;4960674;28;20457;-69
2022/05/27 04:33:19;;;;;;;;;;;14.00;99.90;;;;;;4959235;28;19926;-69
2022/05/27 04:35:46;;;;;;;;;;;14.00;99.90;;;;;;4964898;28;20360;-69
2022/05/27 04:38:13;;;;;;;;;;;13.90;99.90;;;;;;4966414;28;19926;-69
2022/05/27 04:40:40;;;;;;;;;;;13.90;99.90;;;;;;4963646;28;19952;-69
2022/05/27 04:43:07;;;;;;;;;;;14.00;99.90;;;;;;4960677;28;20393;-70
2022/05/27 04:45:35;;;;;;;;;;;13.90;99.90;;;;;;4959989;28;19930;-70
2022/05/27 04:48:01;;;;;;;;;;;13.90;99.90;;;;;;4957723;28;19926;-70
2022/05/27 04:50:28;;;;;;;;;;;13.90;99.90;;;;;;4960543;28;20281;-70
2022/05/27 04:52:55;;;;;;;;;;;13.90;99.90;;;;;;4964125;28;20395;-69
2022/05/27 04:55:22;;;;;;;;;;;13.90;99.90;;;;;;4960407;28;20296;-70
2022/05/27 04:57:50;;;;;;;;;;;13.90;99.90;;;;;;4958191;28;20403;-69
2022/05/27 05:00:18;;;;;;;;;;;13.90;99.90;;;;;;4961231;28;19930;-70
2022/05/27 05:02:46;;;;;;;;;;;14.00;99.90;;;;;;4964469;28;19926;-70
2022/05/27 05:05:14;;;;;;;;;;;13.90;99.90;;;;;;4967913;28;20396;-69
2022/05/27 05:07:41;;;;;;;;;;;14.00;99.90;;;;;;4968563;28;19927;-70
2022/05/27 05:10:08;;;;;;;;;;;14.00;99.90;;;;;;4967120;28;20379;-69
2022/05/27 05:12:35;;;;;;;;;;;14.00;99.90;;;;;;4963057;28;20009;-70
2022/05/27 05:15:02;;;;;;;;;;;14.10;99.90;;;;;;4960113;28;20035;-70
2022/05/27 05:17:28;;;;;;;;;;;14.10;99.90;;;;;;4963413;28;19932;-69
2022/05/27 05:19:57;;;;;;;;;;;14.10;99.90;;;;;;4967408;28;19926;-69
2022/05/27 05:22:24;;;;;;;;;;;14.20;99.90;;;;;;4965107;28;19926;-69
2022/05/27 05:24:53;;;;;;;;;;;14.10;99.90;;;;;;4966662;28;19926;-69
2022/05/27 05:27:20;;;;;;;;;;;14.20;99.90;;;;;;4966130;28;19926;-69
2022/05/27 05:29:46;;;;;;;;;;;14.20;99.90;;;;;;4969174;28;19926;-69
2022/05/27 05:32:13;;;;;;;;;;;14.20;99.90;;;;;;4967460;28;20013;-69
2022/05/27 05:34:40;;;;;;;;;;;14.20;99.90;;;;;;4967826;28;19934;-69
2022/05/27 05:37:08;;;;;;;;;;;14.20;99.90;;;;;;4964979;28;20382;-70
2022/05/27 05:39:36;;;;;;;;;;;14.30;99.90;;;;;;4966697;28;19926;-69
2022/05/27 05:42:04;;;;;;;;;;;14.40;99.90;;;;;;4964934;28;19972;-67
2022/05/27 05:44:31;;;;;;;;;;;14.40;99.90;;;;;;4964943;28;19932;-70
2022/05/27 05:46:58;;;;;;;;;;;14.50;99.90;;;;;;4981042;28;19933;-70
2022/05/27 05:49:25;;;;;;;;;;;14.60;99.90;;;;;;4998092;28;20021;-68
2022/05/27 05:51:52;;;;;;;;;;;14.70;99.90;;;;;;4965024;28;19945;-70
2022/05/27 05:54:20;;;;;;;;;;;14.70;99.90;;;;;;4970631;28;19937;-69
2022/05/27 05:56:47;;;;;;;;;;;14.80;99.90;;;;;;4969544;28;19934;-70
2022/05/27 05:59:14;;;;;;;;;;;14.80;99.90;;;;;;4967850;28;19926;-69
2022/05/27 06:01:41;;;;;;;;;;;14.90;99.90;;;;;;4968232;28;19933;-69
2022/05/27 06:04:08;;;;;;;;;;;14.90;99.90;;;;;;4962026;28;20021;-69
2022/05/27 06:06:34;;;;;;;;;;;14.90;99.90;;;;;;4967357;28;19933;-69
2022/05/27 06:09:01;;;;;;;;;;;15.30;99.90;;;;;;4965107;28;19926;-67
2022/05/27 06:11:29;;;;;;;;;;;16.20;99.90;;;;;;4963437;28;20021;-67
2022/05/27 06:13:56;;;;;;;;;;;16.50;99.90;;;;;;4969056;28;20017;-70
2022/05/27 06:16:22;;;;;;;;;;;16.50;99.90;;;;;;4967427;28;20009;-69
2022/05/27 06:18:49;;;;;;;;;;;16.50;99.90;;;;;;4966539;28;20415;-68
2022/05/27 06:21:16;;;;;;;;;;;16.50;99.90;;;;;;4965532;28;19934;-69
2022/05/27 06:23:44;;;;;;;;;;;16.40;99.90;;;;;;4967733;28;19932;-68
2022/05/27 06:26:12;;;;;;;;;;;16.40;99.90;;;;;;4967576;28;19938;-69
2022/05/27 06:34:26;;;;;;;;;;;16.20;99.90;;;;;;4933542;28;19943;-70
2022/05/27 06:36:54;;;;;;;;;;;16.10;99.90;;;;;;4966119;28;20011;-69
2022/05/27 06:39:21;;;;;;;;;;;15.90;99.90;;;;;;4962012;28;19941;-69
2022/05/27 06:41:48;;;;;;;;;;;15.90;99.90;;;;;;4951270;28;19975;-69
2022/05/27 06:44:16;;;;;;;;;;;15.90;99.90;;;;;;4962744;28;19965;-69
2022/05/27 06:46:43;;;;;;;;;;;16.00;99.90;;;;;;4962830;28;20292;-69
2022/05/27 06:49:10;;;;;;;;;;;16.10;99.90;;;;;;4965458;28;22137;-68
2022/05/27 06:51:37;;;;;;;;;;;16.00;99.90;;;;;;4970447;28;19937;-69
2022/05/27 06:54:05;;;;;;;;;;;15.90;99.90;;;;;;4964734;28;19934;-67
2022/05/27 06:56:32;;;;;;;;;;;16.60;99.90;;;;;;4965763;28;19941;-70
2022/05/27 06:58:58;;;;;;;;;;;17.40;99.90;;;;;;4965086;28;20693;-69
2022/05/27 07:01:27;;;;;;;;;;;18.90;99.90;;;;;;4967215;28;19926;-70
2022/05/27 07:03:53;;;;;;;;;;;19.90;99.90;;;;;;4965181;28;19930;-70
2022/05/27 07:06:20;;;;;;;;;;;19.60;99.90;;;;;;4968547;28;19931;-70
2022/05/27 07:08:47;;;;;;;;;;;19.20;99.90;;;;;;4963155;28;20274;-69
2022/05/27 07:11:13;;;;;;;;;;;19.70;98.20;;;;;;4960693;28;19926;-69
2022/05/27 07:13:41;;;;;;;;;;;19.80;97.40;;;;;;4960020;28;19982;-69
2022/05/27 07:16:08;;;;;;;;;;;20.30;95.50;;;;;;4961133;28;20015;-69
2022/05/27 07:18:36;;;;;;;;;;;20.80;93.70;;;;;;4960180;28;20400;-69
2022/05/27 07:21:03;;;;;;;;;;;21.60;91.50;;;;;;4962000;28;19933;-68
2022/05/27 07:23:30;;;;;;;;;;;20.80;90.20;;;;;;4960133;28;19950;-68
2022/05/27 07:25:57;;;;;;;;;;;20.00;92.00;;;;;;4962899;28;19934;-69
2022/05/27 07:28:24;;;;;;;;;;;19.50;93.70;;;;;;4962264;28;19926;-68
2022/05/27 07:30:51;;;;;;;;;;;19.90;94.20;;;;;;4959385;28;19930;-69
2022/05/27 07:33:17;;;;;;;;;;;19.60;92.80;;;;;;4962595;28;20021;-69
2022/05/27 07:35:45;;;;;;;;;;;18.70;94.10;;;;;;4962340;28;19940;-69
2022/05/27 07:38:12;;;;;;;;;;;17.80;96.70;;;;;;4962293;28;19992;-68
2022/05/27 07:40:39;;;;;;;;;;;17.30;99.50;;;;;;4967465;28;20020;-69
2022/05/27 07:43:07;;;;;;;;;;;17.00;99.90;;;;;;4963641;28;19973;-69
2022/05/27 07:45:36;;;;;;;;;;;16.90;99.90;;;;;;4960988;28;20357;-69
2022/05/27 07:48:03;;;;;;;;;;;17.20;99.90;;;;;;4963752;28;20270;-69
2022/05/27 07:50:29;;;;;;;;;;;17.30;99.90;;;;;;4965817;28;19933;-68
2022/05/27 07:52:57;;;;;;;;;;;17.40;99.90;;;;;;4958794;28;19926;-69
2022/05/27 07:55:24;;;;;;;;;;;17.70;99.90;;;;;;4963956;28;19930;-69
2022/05/27 07:57:52;;;;;;;;;;;19.50;97.80;;;;;;4966186;28;19930;-69
2022/05/27 08:00:20;;;;;;;;;;;20.90;91.50;;;;;;4960325;28;19926;-72
2022/05/27 08:02:47;;;;;;;;;;;22.10;83.70;;;;;;4959113;28;19980;-70
2022/05/27 08:05:15;;;;;;;;;;;23.10;71.50;;;;;;4962121;28;20025;-69
2022/05/27 08:07:41;;;;;;;;;;;23.30;61.70;;;;;;4956428;28;20411;-67
2022/05/27 08:10:10;;;;;;;;;;;21.80;60.80;;;;;;4950186;28;19934;-68
2022/05/27 08:12:37;;;;;;;;;;;20.80;63.90;;;;;;4959974;28;19934;-68
2022/05/27 08:15:05;;;;;;;;;;;20.50;64.90;;;;;;4956254;28;20018;-67
2022/05/27 08:17:31;;;;;;;;;;;20.80;61.90;;;;;;4961687;28;20302;-69
2022/05/27 08:19:58;;;;;;;;;;;20.30;65.50;;;;;;4959210;28;19980;-69
2022/05/27 08:22:25;;;;;;;;;;;19.80;69.60;;;;;;4955548;28;19942;-70
2022/05/27 08:24:51;;;;;;;;;;;20.40;66.30;;;;;;4964250;28;19957;-70
2022/05/27 08:27:19;;;;;;;;;;;21.20;63.70;;;;;;4964862;28;20009;-70
2022/05/27 08:29:46;;;;;;;;;;;22.20;62.10;;;;;;4965403;28;19934;-70
2022/05/27 08:32:13;;;;;;;;;;;23.10;52.90;;;;;;4961266;28;19926;-69
2022/05/27 08:40:14;;;;;;;;;;;23.70;46.00;;;;;;4963971;28;20074;-70
2022/05/27 08:42:44;;;;;;;;;;;23.50;45.20;;;;;;4963421;28;20664;-69
2022/05/27 08:45:14;;;;;;;;;;;21.90;45.70;;;;;;4965720;28;19930;-69
2022/05/27 08:47:43;;;;;;;;;;;21.40;48.40;;;;;;4963749;28;19930;-70
2022/05/27 08:50:11;;;;;;;;;;;21.20;49.10;;;;;;4968207;28;19957;-71
2022/05/27 08:52:40;;;;;;;;;;;20.70;49.60;;;;;;4966773;28;20016;-70
2022/05/27 08:59:26;;;;;;;;;;;19.70;53.40;;;;;;4969726;28;19933;-69
2022/05/27 09:00:44;;;;;;;;;;;19.30;59.40;;;;;;4968512;28;19945;-70
2022/05/27 09:03:11;;;;;;;;;;;19.90;58.50;;;;;;4962296;28;20025;-70
2022/05/27 09:05:43;;;;;;;;;;;20.90;57.00;;;;;;4964059;28;20371;-71
2022/05/27 09:08:13;;;;;;;;;;;22.40;49.80;;;;;;4963055;28;19934;-71
2022/05/27 09:10:44;;;;;;;;;;;23.30;46.20;;;;;;4963996;28;19926;-71
2022/05/27 09:13:18;;;;;;;;;;;23.60;43.60;;;;;;4962918;28;19934;-71
2022/05/27 09:15:51;;;;;;;;;;;23.70;41.90;;;;;;4962258;28;19970;-73
2022/05/27 09:18:26;;;;;;;;;;;24.40;37.50;;;;;;4965349;28;19976;-70
2022/05/27 09:21:00;;;;;;;;;;;25.10;35.20;;;;;;4963790;28;19968;-71
2022/05/27 09:23:34;;;;;;;;;;;25.50;32.70;;;;;;4964363;28;19934;-71
2022/05/27 09:26:02;;;;;;;;;;;25.10;31.90;;;;;;4961298;28;20409;-73
2022/05/27 09:28:37;;;;;;;;;;;24.00;33.50;;;;;;4962366;28;19927;-76
2022/05/27 09:31:07;;;;;;;;;;;22.50;34.30;;;;;;4964885;28;20033;-72
2022/05/27 09:33:33;;;;;;;;;;;21.50;36.70;;;;;;4959784;28;19976;-71
2022/05/27 09:36:02;;;;;;;;;;;22.30;36.80;;;;;;4963346;28;19981;-72
2022/05/27 09:38:31;;;;;;;;;;;23.00;35.50;;;;;;4966009;28;19946;-71
2022/05/27 09:40:58;;;;;;;;;;;21.60;35.70;;;;;;4961385;28;19926;-70
2022/05/27 09:43:29;;;;;;;;;;;21.50;38.70;;;;;;4964483;28;19930;-70
2022/05/27 09:45:59;;;;;;;;;;;22.00;36.50;;;;;;4966210;28;19926;-70
2022/05/27 09:48:26;;;;;;;;;;;21.40;37.80;;;;;;4968040;28;20033;-70
2022/05/27 09:50:52;;;;;;;;;;;20.70;40.40;;;;;;4967223;28;19937;-68
2022/05/27 09:53:20;;;;;;;;;;;21.30;40.50;;;;;;4968485;28;19933;-69
2022/05/27 09:55:49;;;;;;;;;;;22.70;34.50;;;;;;4967827;28;19926;-70
2022/05/27 09:58:23;;;;;;;;;;;21.90;34.60;;;;;;4968859;28;19934;-71
2022/05/27 10:00:50;;;;;;;;;;;22.00;36.20;;;;;;4970470;28;19924;-71
2022/05/27 10:03:33;;;;;;;;;;;20.90;36.20;;;;;;4967004;28;19932;-70
2022/05/27 10:06:01;;;;;;;;;;;20.90;39.00;;;;;;4969285;28;20016;-69
2022/05/27 10:08:33;;;;;;;;;;;21.70;39.10;;;;;;4968978;28;19926;-70
2022/05/27 10:11:28;;;;;;;;;;;21.10;37.30;;;;;;4967046;28;19933;-71
2022/05/27 10:14:19;;;;;;;;;;;20.80;37.80;;;;;;4962830;28;19941;-70
2022/05/27 10:16:59;;;;;;;;;;;20.20;39.70;;;;;;4963779;28;19930;-70
2022/05/27 10:19:27;;;;;;;;;;;19.60;40.20;;;;;;4966489;28;19926;-70
2022/05/27 10:21:56;;;;;;;;;;;19.40;41.50;;;;;;4967582;28;19981;-70
2022/05/27 10:24:25;;;;;;;;;;;19.50;43.00;;;;;;4966306;28;19936;-70
2022/05/27 10:27:03;;;;;;;;;;;19.80;41.70;;;;;;4964714;28;19926;-70
2022/05/27 10:29:29;;;;;;;;;;;19.70;40.40;;;;;;4957359;28;20245;-71
2022/05/27 10:31:58;;;;;;;;;;;19.60;40.70;;;;;;4958013;28;19935;-70
2022/05/27 10:34:41;;;;;;;;;;;19.80;40.50;;;;;;4960506;28;20162;-69
2022/05/27 10:37:10;;;;;;;;;;;20.00;37.90;;;;;;4959860;28;19934;-70
2022/05/27 10:39:41;;;;;;;;;;;20.10;39.10;;;;;;4959927;28;19932;-70
2022/05/27 10:42:24;;;;;;;;;;;19.60;40.10;;;;;;4966511;28;19926;-71
2022/05/27 10:44:56;;;;;;;;;;;19.60;41.50;;;;;;4959455;28;19933;-70
2022/05/27 10:47:33;;;;;;;;;;;19.40;39.90;;;;;;4966849;28;19926;-70
2022/05/27 10:50:13;;;;;;;;;;;19.30;40.40;;;;;;4968691;28;19944;-70
2022/05/27 10:52:46;;;;;;;;;;;19.30;38.80;;;;;;4966892;28;20429;-71
2022/05/27 10:55:18;;;;;;;;;;;19.50;38.80;;;;;;4969310;28;19934;-71
2022/05/27 11:03:39;;;;;;;;;;;19.30;35.00;;;;;;4963120;28;19994;-70
2022/05/27 11:06:17;;;;;;;;;;;19.20;34.70;;;;;;4960799;28;19930;-80
2022/05/27 11:08:48;;;;;;;;;;;19.70;34.80;;;;;;4962572;28;19936;-71
2022/05/27 11:11:26;;;;;;;;;;;20.00;35.90;;;;;;4961770;28;20398;-71
2022/05/27 11:16:48;;;;;;;;;;;19.90;35.50;;;;;;4955554;28;19937;-70
2022/05/27 11:19:30;;;;;;;;;;;20.20;36.20;;;;;;4961997;28;19941;-71
2022/05/27 11:22:08;;;;;;;;;;;20.30;35.70;;;;;;4960082;28;20298;-70
2022/05/27 11:24:51;;;;;;;;;;;20.10;38.50;;;;;;4963101;28;19933;-70
2022/05/27 11:27:24;;;;;;;;;;;19.60;40.20;;;;;;4961821;28;20304;-71
2022/05/27 11:29:57;;;;;;;;;;;19.50;40.90;;;;;;4962861;28;20423;-70
2022/05/27 11:32:30;;;;;;;;;;;19.70;40.40;;;;;;4959014;28;19940;-70
2022/05/27 11:35:02;;;;;;;;;;;19.40;39.80;;;;;;4959476;28;20016;-70
2022/05/27 11:37:44;;;;;;;;;;;19.20;40.60;;;;;;4963892;28;19940;-70
2022/05/27 11:40:18;;;;;;;;;;;19.40;41.20;;;;;;4964612;28;19926;-71
2022/05/27 11:43:05;;;;;;;;;;;19.70;39.10;;;;;;4962407;28;20345;-73
2022/05/27 11:45:32;;;;;;;;;;;19.70;38.80;;;;;;4963113;28;20024;-72
2022/05/27 11:48:01;;;;;;;;;;;19.90;41.40;;;;;;4964396;28;20052;-72
2022/05/27 11:50:32;;;;;;;;;;;20.00;39.60;;;;;;4959753;28;20710;-75
2022/05/27 11:53:11;;;;;;;;;;;20.30;37.40;;;;;;4963407;28;19926;-73
2022/05/27 11:55:50;;;;;;;;;;;20.10;38.80;;;;;;4958545;28;20017;-73
2022/05/27 11:58:18;;;;;;;;;;;20.10;38.70;;;;;;4961095;28;19938;-70
2022/05/27 12:00:46;;;;;;;;;;;19.80;35.70;;;;;;4961322;28;20293;-73
2022/05/27 12:03:18;;;;;;;;;;;19.90;37.10;;;;;;4961252;28;19951;-72
2022/05/27 12:05:47;;;;;;;;;;;20.10;36.90;;;;;;4963958;28;19930;-72
2022/05/27 12:08:18;;;;;;;;;;;20.40;37.00;;;;;;4968739;28;20320;-71
2022/05/27 12:10:47;;;;;;;;;;;20.30;35.00;;;;;;4966076;28;20352;-72
2022/05/27 12:13:24;;;;;;;;;;;20.30;35.10;;;;;;4971801;28;19926;-73
2022/05/27 12:15:53;;;;;;;;;;;20.30;35.10;;;;;;4968304;28;19926;-72
2022/05/27 12:18:23;;;;;;;;;;;20.10;34.80;;;;;;4967863;28;19926;-73
2022/05/27 12:20:50;;;;;;;;;;;20.10;36.20;;;;;;4965938;28;20025;-70
2022/05/27 12:23:20;;;;;;;;;;;20.10;34.30;;;;;;4970612;28;19927;-73
2022/05/27 12:25:49;;;;;;;;;;;19.70;34.60;;;;;;4970829;28;19934;-72
2022/05/27 12:28:17;;;;;;;;;;;19.70;36.10;;;;;;4969745;28;20010;-72
2022/05/27 12:30:45;;;;;;;;;;;20.00;36.70;;;;;;4970465;28;20028;-72
2022/05/27 12:33:12;;;;;;;;;;;19.70;34.50;;;;;;4969449;28;20090;-72
2022/05/27 12:35:44;;;;;;;;;;;19.60;36.10;;;;;;4965155;28;19932;-72
2022/05/27 12:38:12;;;;;;;;;;;19.60;35.20;;;;;;4972138;28;20029;-73
2022/05/27 12:40:40;;;;;;;;;;;19.50;35.40;;;;;;4961970;28;19926;-73
2022/05/27 12:43:14;;;;;;;;;;;19.90;36.80;;;;;;4967108;28;19926;-74
2022/05/27 12:45:48;;;;;;;;;;;20.10;36.70;;;;;;4965116;28;19926;-72
2022/05/27 12:48:28;;;;;;;;;;;19.70;34.60;;;;;;4964610;28;19937;-72
2022/05/27 12:50:55;;;;;;;;;;;19.40;36.20;;;;;;4964150;28;19933;-72
2022/05/27 12:53:35;;;;;;;;;;;19.40;36.20;;;;;;4960568;28;20389;-72
2022/05/27 13:02:40;;;;;;;;;;;19.70;35.30;;;;;;4963569;28;20206;-71
2022/05/27 13:05:07;;;;;;;;;;;19.20;35.10;;;;;;4960874;28;19941;-72
2022/05/27 13:07:44;;;;;;;;;;;19.30;35.10;;;;;;4965562;28;19926;-72
2022/05/27 13:10:29;;;;;;;;;;;19.40;34.50;;;;;;4957928;28;19926;-71
2022/05/27 13:13:00;;;;;;;;;;;19.70;33.10;;;;;;4963768;28;19977;-72
2022/05/27 13:15:32;;;;;;;;;;;19.80;34.50;;;;;;4964048;28;20041;-72
2022/05/27 13:18:08;;;;;;;;;;;20.00;35.20;;;;;;4965250;28;19976;-72
2022/05/27 13:20:42;;;;;;;;;;;19.80;32.80;;;;;;4966580;28;19965;-72
2022/05/27 13:23:12;;;;;;;;;;;19.80;33.30;;;;;;4964929;28;19993;-73
2022/05/27 13:25:41;;;;;;;;;;;20.00;32.20;;;;;;4966137;28;19941;-72
2022/05/27 13:28:10;;;;;;;;;;;19.50;32.70;;;;;;4961937;28;20112;-71
2022/05/27 13:30:57;;;;;;;;;;;19.70;31.60;;;;;;4965543;28;20053;-72
2022/05/27 13:33:25;;;;;;;;;;;19.70;30.90;;;;;;4963389;28;20396;-71
2022/05/27 13:35:52;;;;;;;;;;;19.50;30.50;;;;;;4964053;28;19930;-72
2022/05/27 13:38:24;;;;;;;;;;;19.60;30.60;;;;;;4962425;28;19926;-73
2022/05/27 13:40:50;;;;;;;;;;;19.30;30.30;;;;;;4960659;28;19932;-72
2022/05/27 13:43:19;;;;;;;;;;;19.30;31.80;;;;;;4961874;28;19926;-73
2022/05/27 13:45:49;;;;;;;;;;;19.30;30.80;;;;;;4966417;28;20033;-73
2022/05/27 13:48:20;;;;;;;;;;;19.30;30.40;;;;;;4964132;28;19930;-73
2022/05/27 13:50:49;;;;;;;;;;;19.40;31.00;;;;;;4967238;28;19926;-72
2022/05/27 13:53:18;;;;;;;;;;;19.50;29.00;;;;;;4965558;28;19927;-73
2022/05/27 13:55:45;;;;;;;;;;;19.30;28.80;;;;;;4978041;28;19930;-72
2022/05/27 13:58:13;;;;;;;;;;;19.50;31.20;;;;;;4962389;28;19940;-72
2022/05/27 14:00:42;;;;;;;;;;;19.50;30.20;;;;;;4963172;28;19930;-72
2022/05/27 14:03:09;;;;;;;;;;;19.10;30.70;;;;;;4966034;28;19934;-73
2022/05/27 14:05:38;;;;;;;;;;;18.90;31.50;;;;;;4964477;28;19926;-72
2022/05/27 14:08:05;;;;;;;;;;;18.50;33.40;;;;;;4966777;28;20340;-72
2022/05/27 14:10:41;;;;;;;;;;;18.70;32.30;;;;;;4965698;28;19926;-72
2022/05/27 14:13:19;;;;;;;;;;;19.10;33.20;;;;;;4963480;28;20285;-73
2022/05/27 14:15:45;;;;;;;;;;;19.50;32.20;;;;;;4965689;28;20414;-73
2022/05/27 14:18:13;;;;;;;;;;;19.30;31.40;;;;;;4964126;28;19946;-72
2022/05/27 14:23:24;;;;;;;;;;;19.00;31.50;;;;;;4954311;28;19930;-71
2022/05/27 14:25:53;;;;;;;;;;;19.20;30.10;;;;;;4958781;28;19965;-71
2022/05/27 14:28:22;;;;;;;;;;;19.20;31.20;;;;;;4961737;28;19933;-70
2022/05/27 14:30:51;;;;;;;;;;;19.30;31.20;;;;;;4958290;28;20290;-70
2022/05/27 14:33:23;;;;;;;;;;;19.20;31.30;;;;;;4969740;28;19933;-70
2022/05/27 14:35:51;;;;;;;;;;;19.30;31.00;;;;;;4966803;28;20057;-69
2022/05/27 14:38:20;;;;;;;;;;;19.40;31.40;;;;;;4964979;28;19933;-69
2022/05/27 14:40:50;;;;;;;;;;;19.30;30.40;;;;;;4963556;28;19927;-71
2022/05/27 14:43:21;;;;;;;;;;;18.90;31.60;;;;;;4956298;28;19934;-70
2022/05/27 14:45:52;;;;;;;;;;;18.30;30.70;;;;;;4958608;28;19931;-70
2022/05/27 14:48:26;;;;;;;;;;;18.70;32.40;;;;;;4962187;28;19930;-70
2022/05/27 14:50:55;;;;;;;;;;;19.00;31.00;;;;;;4964306;28;19926;-72
2022/05/27 14:53:21;;;;;;;;;;;19.00;29.40;;;;;;4958431;28;19926;-72
2022/05/27 14:55:55;;;;;;;;;;;19.10;30.00;;;;;;4966581;28;19931;-70
2022/05/27 14:58:27;;;;;;;;;;;19.10;30.20;;;;;;4959143;28;19935;-71
2022/05/27 15:00:54;;;;;;;;;;;19.30;30.10;;;;;;4963201;28;19965;-71
2022/05/27 15:03:26;;;;;;;;;;;19.30;29.40;;;;;;4956961;28;19941;-72
2022/05/27 15:05:54;;;;;;;;;;;18.90;29.40;;;;;;4959807;28;20017;-71
2022/05/27 15:08:31;;;;;;;;;;;18.80;29.40;;;;;;4967897;28;20025;-71